Time;durP1;ratioP1;P1;durP2;ratioP2;P2;SDS_P1;SDS_P2;PMS_P1;PMS_P2;Temp;Humidity;BMP_temperature;BMP_pressure;BME280_temperature;BME280_humidity;BME280_pressure;Samples;Min_cycle;Max_cycle;Signal;HPM_P1;HPM_P2
2023/03/31 00:00:59;;;;;;;15.17;5.00;;;12.10;99.90;;;;;;5016563;28;20466;-75
2023/03/31 00:03:27;;;;;;;9.03;4.70;;;12.10;99.90;;;;;;5034044;28;20539;-75
2023/03/31 00:05:57;;;;;;;11.77;5.07;;;12.10;99.90;;;;;;5033949;28;20435;-75
2023/03/31 00:08:28;;;;;;;18.50;5.70;;;12.10;99.90;;;;;;5033847;28;20435;-75
2023/03/31 00:11:00;;;;;;;10.13;5.40;;;12.10;99.90;;;;;;5033810;28;20838;-75
2023/03/31 00:13:29;;;;;;;9.70;4.87;;;12.10;99.90;;;;;;5016148;28;20860;-75
2023/03/31 00:15:59;;;;;;;14.57;5.13;;;12.00;99.90;;;;;;5016028;28;20452;-75
2023/03/31 00:18:28;;;;;;;11.80;5.47;;;12.10;99.90;;;;;;5015939;28;20451;-75
2023/03/31 00:21:06;;;;;;;10.30;5.37;;;12.10;99.90;;;;;;5033696;28;20545;-75
2023/03/31 00:23:34;;;;;;;10.90;6.13;;;12.10;99.90;;;;;;5016052;28;20435;-75
2023/03/31 00:26:04;;;;;;;16.10;6.10;;;12.10;99.90;;;;;;5015916;28;20443;-75
2023/03/31 00:28:33;;;;;;;10.37;4.80;;;12.10;99.90;;;;;;5033675;28;20511;-75
2023/03/31 00:31:02;;;;;;;10.40;5.03;;;12.10;99.90;;;;;;5015780;28;20565;-75
2023/03/31 00:33:30;;;;;;;11.17;4.87;;;12.10;99.90;;;;;;5015788;28;20454;-75
2023/03/31 00:36:00;;;;;;;10.40;6.20;;;12.10;99.90;;;;;;5033461;28;20450;-75
2023/03/31 00:38:29;;;;;;;11.20;5.20;;;12.10;99.90;;;;;;5015605;28;20533;-75
2023/03/31 00:40:58;;;;;;;12.17;4.97;;;12.10;99.90;;;;;;5015681;28;20458;-75
2023/03/31 00:43:31;;;;;;;13.53;4.90;;;12.10;99.90;;;;;;5015680;28;20443;-75
2023/03/31 00:46:07;;;;;;;12.50;4.80;;;12.10;99.90;;;;;;5015548;28;20483;-75
2023/03/31 00:48:37;;;;;;;13.67;5.37;;;12.10;99.90;;;;;;5015568;28;20443;-75
2023/03/31 00:51:07;;;;;;;12.87;5.10;;;12.10;99.90;;;;;;5033077;28;20482;-75
2023/03/31 00:53:37;;;;;;;12.50;5.67;;;12.10;99.90;;;;;;5015526;28;20447;-75
2023/03/31 00:56:11;;;;;;;10.17;5.33;;;12.00;99.90;;;;;;5015594;28;20941;-75
2023/03/31 00:58:43;;;;;;;11.03;4.70;;;12.10;99.90;;;;;;5015526;28;20445;-75
2023/03/31 01:01:16;;;;;;;12.10;5.40;;;12.10;99.90;;;;;;5015431;28;20473;-75
2023/03/31 01:03:45;;;;;;;9.57;5.03;;;12.10;99.90;;;;;;5015498;28;20509;-75
2023/03/31 01:06:18;;;;;;;11.63;5.30;;;12.10;99.90;;;;;;5015473;28;20793;-75
2023/03/31 01:08:48;;;;;;;10.00;4.80;;;12.10;99.90;;;;;;5015419;28;20439;-75
2023/03/31 01:11:19;;;;;;;10.13;4.90;;;12.10;99.90;;;;;;5015254;28;20482;-75
2023/03/31 01:13:51;;;;;;;9.03;5.00;;;12.10;99.90;;;;;;5015400;28;20431;-75
2023/03/31 01:16:19;;;;;;;12.70;5.13;;;12.10;99.90;;;;;;5033071;28;20428;-75
2023/03/31 01:18:48;;;;;;;11.50;4.90;;;12.10;99.90;;;;;;5015352;28;20972;-75
2023/03/31 01:21:46;;;;;;;13.53;5.77;;;12.00;99.90;;;;;;5015297;28;20920;-75
2023/03/31 01:24:46;;;;;;;11.00;4.80;;;12.10;99.90;;;;;;5033285;28;20910;-75
2023/03/31 01:27:42;;;;;;;10.40;4.73;;;12.00;99.90;;;;;;5015199;28;20871;-75
2023/03/31 01:30:33;;;;;;;12.97;5.37;;;12.10;99.90;;;;;;5013421;28;20471;-75
2023/03/31 01:33:33;;;;;;;12.73;5.20;;;12.00;99.90;;;;;;5015210;28;20451;-75
2023/03/31 01:36:51;;;;;;;12.57;5.90;;;12.00;99.90;;;;;;5015097;28;20518;-75
2023/03/31 01:40:07;;;;;;;13.83;5.60;;;12.00;99.90;;;;;;5016191;28;20833;-75
2023/03/31 01:42:39;;;;;;;10.87;5.70;;;12.00;99.90;;;;;;5010709;28;20581;-75
2023/03/31 01:45:19;;;;;;;12.10;5.47;;;12.00;99.90;;;;;;5024455;28;20508;-75
2023/03/31 01:47:53;;;;;;;10.40;5.13;;;12.00;99.90;;;;;;5020650;28;20799;-75
2023/03/31 01:50:28;;;;;;;13.30;5.87;;;12.00;99.90;;;;;;5019390;28;20466;-75
2023/03/31 01:53:02;;;;;;;11.53;5.50;;;12.00;99.90;;;;;;5037277;28;20453;-75
2023/03/31 01:55:36;;;;;;;9.93;5.90;;;12.00;99.90;;;;;;5018841;28;20447;-75
2023/03/31 01:58:11;;;;;;;10.80;5.87;;;12.00;99.90;;;;;;5018833;28;20443;-75
2023/03/31 02:00:45;;;;;;;13.10;5.37;;;12.00;99.90;;;;;;5018745;28;20525;-75
2023/03/31 02:03:17;;;;;;;9.70;5.70;;;12.00;99.90;;;;;;5036491;28;20423;-75
2023/03/31 02:05:50;;;;;;;10.27;5.67;;;12.00;99.90;;;;;;5018563;28;20841;-75
2023/03/31 02:08:22;;;;;;;14.23;5.97;;;11.90;99.90;;;;;;5036499;28;20485;-75
2023/03/31 02:10:53;;;;;;;8.80;5.40;;;11.90;99.90;;;;;;5018593;28;20479;-75
2023/03/31 02:13:25;;;;;;;11.60;5.63;;;11.90;99.90;;;;;;5018428;28;20467;-75
2023/03/31 02:15:57;;;;;;;10.67;6.00;;;11.90;99.90;;;;;;5018437;28;20538;-75
2023/03/31 02:18:29;;;;;;;8.50;5.97;;;11.90;99.90;;;;;;5036403;28;20441;-75
2023/03/31 02:20:59;;;;;;;12.00;5.53;;;11.90;99.90;;;;;;5018299;28;20475;-75
2023/03/31 02:23:30;;;;;;;12.47;6.23;;;11.80;99.90;;;;;;5036431;28;20549;-75
2023/03/31 02:26:03;;;;;;;14.00;5.90;;;11.80;99.90;;;;;;5019017;28;20443;-75
2023/03/31 02:28:32;;;;;;;12.77;7.10;;;11.90;99.90;;;;;;5018129;28;20983;-75
2023/03/31 02:31:11;;;;;;;14.77;6.70;;;11.80;99.90;;;;;;5017839;28;20478;-75
2023/03/31 02:33:41;;;;;;;12.10;6.27;;;11.80;99.90;;;;;;5018040;28;20450;-75
2023/03/31 02:36:09;;;;;;;12.60;5.33;;;11.80;99.90;;;;;;5017782;28;20477;-75
2023/03/31 02:38:44;;;;;;;10.90;6.30;;;11.80;99.90;;;;;;5017806;28;20443;-75
2023/03/31 02:41:13;;;;;;;9.97;6.57;;;11.80;99.90;;;;;;5017864;28;20502;-75
2023/03/31 02:43:42;;;;;;;9.73;6.40;;;11.80;99.90;;;;;;5017904;28;20435;-75
2023/03/31 02:46:10;;;;;;;10.53;5.73;;;11.70;99.90;;;;;;5017730;28;20459;-75
2023/03/31 02:48:43;;;;;;;15.23;5.53;;;11.80;99.90;;;;;;5017663;28;20446;-75
2023/03/31 02:51:55;;;;;;;14.90;5.80;;;11.80;99.90;;;;;;5017704;28;20479;-75
2023/03/31 02:54:37;;;;;;;13.13;5.90;;;11.80;99.90;;;;;;5017652;28;20913;-75
2023/03/31 02:57:27;;;;;;;8.47;4.63;;;11.80;99.90;;;;;;5018124;28;20447;-75
2023/03/31 03:00:08;;;;;;;9.87;4.90;;;11.70;99.90;;;;;;5017442;28;20439;-75
2023/03/31 03:02:56;;;;;;;10.13;5.03;;;11.70;99.90;;;;;;5017602;28;20522;-75
2023/03/31 03:05:33;;;;;;;12.80;6.20;;;11.80;99.90;;;;;;5018314;28;20439;-75
2023/03/31 03:08:55;;;;;;;12.20;5.37;;;11.70;99.90;;;;;;5021613;28;20439;-75
2023/03/31 03:11:32;;;;;;;9.57;5.13;;;11.70;99.90;;;;;;5017614;28;20832;-75
2023/03/31 03:14:07;;;;;;;12.40;5.13;;;11.70;99.90;;;;;;5017276;28;20435;-75
2023/03/31 03:16:41;;;;;;;12.17;6.30;;;11.70;99.90;;;;;;5034982;28;20434;-75
2023/03/31 03:19:09;;;;;;;10.80;5.27;;;11.70;99.90;;;;;;5017194;28;20462;-75
2023/03/31 03:21:37;;;;;;;10.43;4.80;;;11.70;99.90;;;;;;5034755;28;20477;-75
2023/03/31 03:24:06;;;;;;;13.33;5.17;;;11.70;99.90;;;;;;5035163;28;20435;-75
2023/03/31 03:26:34;;;;;;;15.13;5.10;;;11.70;99.90;;;;;;5017109;28;20952;-75
2023/03/31 03:29:04;;;;;;;10.63;5.00;;;11.70;99.90;;;;;;5017014;28;20454;-75
2023/03/31 03:31:32;;;;;;;13.80;5.10;;;11.70;99.90;;;;;;5034496;28;20845;-75
2023/03/31 03:34:00;;;;;;;14.10;5.90;;;11.70;99.90;;;;;;5016802;28;20445;-75
2023/03/31 03:36:28;;;;;;;11.90;4.27;;;11.70;99.90;;;;;;5034451;28;20450;-75
2023/03/31 03:38:56;;;;;;;10.90;4.33;;;11.70;99.90;;;;;;5016769;28;20451;-75
2023/03/31 03:41:25;;;;;;;8.90;4.30;;;11.70;99.90;;;;;;5034593;28;20517;-75
2023/03/31 03:43:53;;;;;;;12.13;5.03;;;11.70;99.90;;;;;;5034321;28;20450;-75
2023/03/31 03:46:23;;;;;;;9.87;4.60;;;11.70;99.90;;;;;;5034936;28;20454;-75
2023/03/31 03:48:52;;;;;;;10.43;4.20;;;11.70;99.90;;;;;;5016555;28;20442;-75
2023/03/31 03:51:20;;;;;;;11.63;4.30;;;11.70;99.90;;;;;;5016669;28;20913;-75
2023/03/31 03:53:48;;;;;;;10.70;4.20;;;11.70;99.90;;;;;;5016482;28;20947;-75
2023/03/31 03:56:16;;;;;;;12.90;4.90;;;11.60;99.90;;;;;;5016484;28;20501;-75
2023/03/31 03:58:44;;;;;;;8.40;4.00;;;11.60;99.90;;;;;;5034416;28;20457;-75
2023/03/31 04:01:13;;;;;;;8.33;3.63;;;11.60;99.90;;;;;;5016608;28;20469;-75
2023/03/31 04:03:42;;;;;;;11.77;3.90;;;11.60;99.90;;;;;;5015898;28;20975;-75
2023/03/31 04:06:10;;;;;;;11.87;4.10;;;11.60;99.90;;;;;;5033987;28;20439;-75
2023/03/31 04:08:38;;;;;;;9.23;4.47;;;11.60;99.90;;;;;;5034110;28;20439;-75
2023/03/31 04:11:13;;;;;;;12.70;5.40;;;11.60;99.90;;;;;;5016097;28;21000;-75
2023/03/31 04:13:44;;;;;;;10.50;4.30;;;11.50;99.90;;;;;;5034165;28;20506;-75
2023/03/31 04:16:13;;;;;;;10.83;4.63;;;11.50;99.90;;;;;;5034083;28;20501;-75
2023/03/31 04:18:42;;;;;;;10.17;5.67;;;11.50;99.90;;;;;;5033786;28;20451;-75
2023/03/31 04:21:14;;;;;;;11.13;4.23;;;11.50;99.90;;;;;;5033877;28;20478;-75
2023/03/31 04:23:45;;;;;;;9.20;3.27;;;11.50;99.90;;;;;;5016039;28;20443;-75
2023/03/31 04:26:15;;;;;;;9.40;3.80;;;11.40;99.90;;;;;;5015982;28;20481;-75
2023/03/31 04:28:45;;;;;;;13.50;4.77;;;11.40;99.90;;;;;;5033582;28;20439;-75
2023/03/31 04:31:15;;;;;;;13.83;4.73;;;11.50;99.90;;;;;;5033692;28;20593;-75
2023/03/31 04:33:45;;;;;;;11.43;3.90;;;11.50;99.90;;;;;;5015950;28;20565;-75
2023/03/31 04:36:16;;;;;;;12.03;4.27;;;11.50;99.90;;;;;;5033417;28;20451;-75
2023/03/31 04:38:46;;;;;;;11.80;4.47;;;11.40;99.90;;;;;;5015879;28;20440;-75
2023/03/31 04:41:14;;;;;;;8.47;4.80;;;11.40;99.90;;;;;;5033559;28;20451;-75
2023/03/31 04:43:43;;;;;;;11.90;5.70;;;11.40;99.90;;;;;;5033617;28;20435;-75
2023/03/31 04:46:11;;;;;;;10.90;6.40;;;11.40;99.90;;;;;;5033643;28;20458;-75
2023/03/31 04:48:39;;;;;;;11.30;4.20;;;11.40;99.90;;;;;;5015628;28;20451;-75
2023/03/31 04:51:09;;;;;;;15.43;7.50;;;11.40;99.90;;;;;;5033255;28;20465;-75
2023/03/31 04:53:37;;;;;;;11.30;6.47;;;11.40;99.90;;;;;;5033249;28;20470;-75
2023/03/31 04:56:06;;;;;;;10.30;5.70;;;11.40;99.90;;;;;;5033305;28;20443;-75
2023/03/31 04:58:35;;;;;;;13.00;7.47;;;11.30;99.90;;;;;;5033545;28;20442;-75
2023/03/31 05:01:05;;;;;;;11.73;7.40;;;11.30;99.90;;;;;;5033132;28;20497;-75
2023/03/31 05:03:33;;;;;;;15.87;6.80;;;11.30;99.90;;;;;;5015432;28;20453;-75
2023/03/31 05:06:02;;;;;;;12.13;7.83;;;11.30;99.90;;;;;;5015450;28;20816;-75
2023/03/31 05:08:32;;;;;;;9.40;6.60;;;11.30;99.90;;;;;;5033166;28;20439;-75
2023/03/31 05:11:02;;;;;;;11.00;7.27;;;11.30;99.90;;;;;;5033201;28;20537;-75
2023/03/31 05:13:31;;;;;;;11.20;7.30;;;11.30;99.90;;;;;;5038048;28;20490;-75
2023/03/31 05:16:00;;;;;;;9.90;6.80;;;11.20;99.90;;;;;;5037860;28;20467;-75
2023/03/31 05:18:28;;;;;;;16.23;8.60;;;11.30;99.90;;;;;;5038207;28;20533;-75
2023/03/31 05:20:56;;;;;;;12.33;7.77;;;11.30;99.90;;;;;;5020316;28;21086;-75
2023/03/31 05:23:25;;;;;;;10.23;6.77;;;11.20;99.90;;;;;;5037836;28;20966;-75
2023/03/31 05:25:54;;;;;;;14.83;8.80;;;11.20;99.90;;;;;;5037463;28;20489;-75
2023/03/31 05:28:22;;;;;;;13.33;8.43;;;11.20;99.90;;;;;;5037511;28;20501;-75
2023/03/31 05:30:50;;;;;;;13.57;8.50;;;11.20;99.90;;;;;;5019365;28;20474;-75
2023/03/31 05:33:18;;;;;;;13.37;9.23;;;11.20;99.90;;;;;;5037460;28;20876;-75
2023/03/31 05:35:46;;;;;;;14.53;10.30;;;11.20;99.90;;;;;;5036472;28;20462;-75
2023/03/31 05:38:14;;;;;;;15.03;10.20;;;11.20;99.90;;;;;;5017877;28;20466;-75
2023/03/31 05:40:43;;;;;;;13.97;10.03;;;11.10;99.90;;;;;;5017848;28;20991;-75
2023/03/31 05:43:12;;;;;;;14.30;10.80;;;11.20;99.90;;;;;;5035409;28;20439;-75
2023/03/31 05:45:40;;;;;;;13.80;11.53;;;11.20;99.90;;;;;;5035413;28;20438;-75
2023/03/31 05:48:08;;;;;;;13.20;10.90;;;11.10;99.90;;;;;;5017569;28;20509;-76
2023/03/31 05:50:36;;;;;;;12.73;9.47;;;11.10;99.90;;;;;;5017745;28;20834;-75
2023/03/31 05:53:04;;;;;;;12.90;10.20;;;11.10;99.90;;;;;;5035163;28;20971;-76
2023/03/31 05:55:35;;;;;;;12.53;10.53;;;11.10;99.90;;;;;;5035223;28;20950;-76
2023/03/31 05:58:03;;;;;;;17.77;12.03;;;11.10;99.90;;;;;;5036270;28;20473;-76
2023/03/31 06:00:34;;;;;;;18.63;11.20;;;11.10;99.90;;;;;;5035292;28;20437;-76
2023/03/31 06:03:02;;;;;;;13.00;11.57;;;11.10;99.90;;;;;;5035357;28;20930;-76
2023/03/31 06:05:31;;;;;;;14.37;11.60;;;11.10;99.90;;;;;;5035319;28;20488;-76
2023/03/31 06:07:59;;;;;;;15.80;11.73;;;11.00;99.90;;;;;;5017350;28;20489;-76
2023/03/31 06:10:27;;;;;;;15.37;11.67;;;11.00;99.90;;;;;;5034898;28;20439;-76
2023/03/31 06:12:55;;;;;;;14.70;12.53;;;11.10;99.90;;;;;;5017263;28;20475;-76
2023/03/31 06:15:23;;;;;;;13.70;11.10;;;11.00;99.90;;;;;;5035481;28;20987;-76
2023/03/31 06:17:53;;;;;;;14.67;12.30;;;11.00;99.90;;;;;;5034887;28;20475;-76
2023/03/31 06:20:21;;;;;;;14.70;12.13;;;11.00;99.90;;;;;;5017075;28;20508;-76
2023/03/31 06:22:55;;;;;;;17.13;12.60;;;11.00;99.90;;;;;;5035199;28;20960;-76
2023/03/31 06:25:23;;;;;;;13.70;11.60;;;11.00;99.90;;;;;;5034413;28;20825;-76
2023/03/31 06:27:51;;;;;;;17.03;12.17;;;11.00;99.90;;;;;;5034793;28;20471;-76
2023/03/31 06:30:20;;;;;;;16.00;11.77;;;11.00;99.90;;;;;;5034590;28;20849;-75
2023/03/31 06:32:48;;;;;;;15.13;11.87;;;11.00;99.90;;;;;;5016837;28;20920;-76
2023/03/31 06:35:18;;;;;;;15.23;11.60;;;11.00;99.90;;;;;;4978231;28;1129286;-76
2023/03/31 06:37:46;;;;;;;15.13;11.70;;;11.00;99.90;;;;;;5035948;28;20196;-76
2023/03/31 06:40:14;;;;;;;15.03;11.80;;;11.00;99.90;;;;;;5035590;28;20470;-76
2023/03/31 06:42:42;;;;;;;12.90;10.83;;;11.00;99.90;;;;;;5035533;28;20829;-76
2023/03/31 06:45:11;;;;;;;13.60;10.80;;;11.00;99.90;;;;;;5035850;28;20435;-76
2023/03/31 06:47:40;;;;;;;14.57;11.40;;;11.00;99.90;;;;;;5035441;28;20501;-76
2023/03/31 06:50:10;;;;;;;13.97;10.27;;;11.00;99.90;;;;;;5035541;28;20497;-76
2023/03/31 06:52:40;;;;;;;12.40;10.50;;;11.10;99.90;;;;;;5035301;28;20463;-76
2023/03/31 06:55:09;;;;;;;11.17;9.57;;;11.10;99.90;;;;;;5035401;28;20439;-76
2023/03/31 06:57:37;;;;;;;13.10;10.00;;;11.10;99.90;;;;;;5017703;28;20451;-76
2023/03/31 07:00:07;;;;;;;10.03;9.03;;;11.00;99.90;;;;;;5017648;28;20451;-76
2023/03/31 07:02:35;;;;;;;13.33;10.60;;;11.10;99.90;;;;;;5035164;28;20558;-76
2023/03/31 07:05:04;;;;;;;11.43;10.23;;;11.10;99.90;;;;;;5017428;28;20820;-76
2023/03/31 07:07:32;;;;;;;13.87;11.33;;;11.10;99.90;;;;;;5017432;28;20583;-76
2023/03/31 07:10:01;;;;;;;13.03;11.80;;;11.10;99.90;;;;;;5034962;28;20440;-76
2023/03/31 07:12:32;;;;;;;14.40;12.87;;;11.10;99.90;;;;;;5017255;28;20463;-76
2023/03/31 07:15:00;;;;;;;13.83;12.33;;;11.10;99.90;;;;;;5017144;28;20474;-76
2023/03/31 07:17:29;;;;;;;13.27;11.97;;;11.10;99.90;;;;;;5017113;28;20443;-76
2023/03/31 07:19:57;;;;;;;13.77;12.47;;;11.20;99.90;;;;;;5034944;28;20855;-76
2023/03/31 07:22:26;;;;;;;14.93;13.30;;;11.20;99.90;;;;;;5034832;28;20482;-76
2023/03/31 07:24:54;;;;;;;15.03;13.63;;;11.20;99.90;;;;;;5017083;28;20447;-76
2023/03/31 07:27:23;;;;;;;15.20;13.70;;;11.20;99.90;;;;;;5034749;28;20444;-76
2023/03/31 07:29:53;;;;;;;13.87;12.47;;;11.20;99.90;;;;;;5035055;28;20546;-76
2023/03/31 07:32:22;;;;;;;15.07;13.47;;;11.30;99.90;;;;;;5016870;28;20595;-75
2023/03/31 07:34:51;;;;;;;14.53;13.03;;;11.30;99.90;;;;;;5016655;28;20479;-76
2023/03/31 07:37:19;;;;;;;13.83;12.43;;;11.30;99.90;;;;;;5033837;28;20427;-76
2023/03/31 07:39:49;;;;;;;15.87;14.30;;;11.40;99.90;;;;;;5016864;28;20462;-76
2023/03/31 07:42:17;;;;;;;15.30;13.73;;;11.40;99.90;;;;;;5034435;28;20465;-76
2023/03/31 07:44:47;;;;;;;14.40;12.90;;;11.40;99.90;;;;;;5016752;28;20501;-76
2023/03/31 07:47:15;;;;;;;14.40;12.97;;;11.50;99.90;;;;;;5016614;28;20788;-76
2023/03/31 07:49:43;;;;;;;14.60;13.17;;;11.40;99.90;;;;;;5016569;28;20446;-75
2023/03/31 07:52:11;;;;;;;14.53;13.07;;;11.40;99.90;;;;;;5016557;28;20467;-76
2023/03/31 07:54:39;;;;;;;15.90;12.97;;;11.50;99.90;;;;;;5034448;28;20466;-76
2023/03/31 07:57:07;;;;;;;14.80;13.13;;;11.50;99.90;;;;;;5016726;28;20442;-76
2023/03/31 07:59:36;;;;;;;15.27;13.33;;;11.50;99.90;;;;;;5034318;28;20787;-75
2023/03/31 08:02:05;;;;;;;14.83;13.40;;;11.50;99.90;;;;;;5016386;28;20983;-75
2023/03/31 08:04:33;;;;;;;11.50;10.23;;;11.60;99.90;;;;;;5034045;28;20459;-75
2023/03/31 08:07:02;;;;;;;16.40;12.80;;;11.60;99.90;;;;;;5034078;28;20500;-75
2023/03/31 08:09:30;;;;;;;16.53;13.70;;;11.60;99.90;;;;;;5033980;28;20466;-75
2023/03/31 08:11:58;;;;;;;14.07;12.50;;;11.60;99.90;;;;;;5016153;28;20504;-75
2023/03/31 08:14:26;;;;;;;13.33;12.03;;;11.70;99.90;;;;;;5033790;28;20477;-75
2023/03/31 08:17:09;;;;;;;15.80;12.77;;;11.70;99.90;;;;;;5016193;28;20526;-75
2023/03/31 08:19:38;;;;;;;14.00;12.60;;;11.70;99.90;;;;;;5033695;28;20442;-75
2023/03/31 08:22:06;;;;;;;13.27;11.97;;;11.80;99.90;;;;;;5016005;28;20856;-75
2023/03/31 08:24:34;;;;;;;12.90;11.60;;;11.80;99.90;;;;;;5033660;28;20439;-75
2023/03/31 08:27:02;;;;;;;13.10;10.63;;;11.90;99.90;;;;;;5015915;28;20497;-75
2023/03/31 08:29:30;;;;;;;12.37;11.10;;;11.90;99.90;;;;;;5033493;28;20841;-75
2023/03/31 08:31:58;;;;;;;12.07;10.90;;;12.00;99.90;;;;;;5016056;28;20462;-75
2023/03/31 08:34:27;;;;;;;12.40;11.20;;;12.00;99.90;;;;;;5015801;28;20470;-75
2023/03/31 08:36:55;;;;;;;12.27;11.17;;;11.90;99.90;;;;;;5015854;28;20447;-75
2023/03/31 08:39:24;;;;;;;14.27;11.40;;;12.00;99.90;;;;;;5018201;28;20443;-75
2023/03/31 08:41:58;;;;;;;12.07;10.80;;;12.00;99.90;;;;;;5039525;28;20490;-75
2023/03/31 08:44:32;;;;;;;13.43;11.13;;;11.90;99.90;;;;;;5034822;28;20419;-75
2023/03/31 08:47:02;;;;;;;11.67;9.97;;;11.90;99.90;;;;;;5016443;28;20512;-75
2023/03/31 08:49:37;;;;;;;10.97;9.80;;;11.90;99.90;;;;;;5015963;28;20447;-75
2023/03/31 08:52:11;;;;;;;10.97;9.60;;;11.90;99.90;;;;;;5015779;28;20471;-75
2023/03/31 08:54:42;;;;;;;11.40;9.23;;;11.90;99.90;;;;;;5015665;28;20466;-75
2023/03/31 08:57:17;;;;;;;14.00;8.97;;;12.00;99.90;;;;;;5015652;28;20443;-75
2023/03/31 08:59:46;;;;;;;12.73;9.57;;;12.00;99.90;;;;;;5015611;28;20457;-75
2023/03/31 09:02:24;;;;;;;13.13;9.70;;;12.00;99.90;;;;;;5015489;28;20465;-75
2023/03/31 09:05:18;;;;;;;13.80;8.93;;;12.00;99.90;;;;;;5033577;28;20774;-75
2023/03/31 09:07:55;;;;;;;11.80;9.10;;;12.00;99.90;;;;;;5005868;28;20554;-75
2023/03/31 09:10:35;;;;;;;12.20;8.30;;;12.00;99.90;;;;;;5015529;28;20963;-75
2023/03/31 09:13:16;;;;;;;12.33;8.40;;;11.90;99.90;;;;;;5033842;28;20429;-75
2023/03/31 09:15:48;;;;;;;10.97;7.90;;;11.90;99.90;;;;;;5033229;28;20963;-75
2023/03/31 09:18:20;;;;;;;8.73;7.20;;;11.90;99.90;;;;;;5015404;28;20447;-76
2023/03/31 09:20:59;;;;;;;8.97;7.50;;;11.90;99.90;;;;;;5033321;28;20477;-75
2023/03/31 09:23:32;;;;;;;11.13;7.90;;;11.90;99.90;;;;;;5033415;28;20776;-76
2023/03/31 09:26:04;;;;;;;9.00;7.20;;;11.90;99.90;;;;;;5015372;28;20450;-75
2023/03/31 09:28:37;;;;;;;10.60;7.80;;;11.90;99.90;;;;;;5032971;28;20420;-75
2023/03/31 09:31:13;;;;;;;11.93;7.87;;;11.90;99.90;;;;;;5033311;28;21041;-75
2023/03/31 09:33:44;;;;;;;9.60;8.27;;;11.90;99.90;;;;;;5015410;28;20434;-76
2023/03/31 09:36:18;;;;;;;8.13;7.13;;;11.90;99.90;;;;;;5014975;28;20534;-76
2023/03/31 09:38:47;;;;;;;10.80;7.50;;;11.90;99.90;;;;;;5033132;28;20411;-76
2023/03/31 09:41:17;;;;;;;10.50;9.10;;;11.90;99.90;;;;;;5033071;28;20607;-75
2023/03/31 09:43:48;;;;;;;9.40;7.60;;;11.80;99.90;;;;;;5015251;28;20454;-75
2023/03/31 09:46:19;;;;;;;10.60;7.83;;;11.80;99.90;;;;;;5032834;28;20435;-75
2023/03/31 09:49:00;;;;;;;18.53;7.23;;;11.80;99.90;;;;;;5033128;28;20430;-76
2023/03/31 09:51:36;;;;;;;10.67;7.23;;;11.80;99.90;;;;;;5015100;28;20474;-76
2023/03/31 09:54:14;;;;;;;8.50;6.80;;;11.70;99.90;;;;;;5033363;28;20478;-76
2023/03/31 09:56:49;;;;;;;10.20;6.50;;;11.80;99.90;;;;;;5015327;28;20466;-76
2023/03/31 09:59:19;;;;;;;9.53;6.83;;;11.80;99.90;;;;;;5014995;28;20550;-76
2023/03/31 10:01:50;;;;;;;8.60;6.63;;;11.80;99.90;;;;;;5035610;28;20888;-76
2023/03/31 10:04:22;;;;;;;9.43;6.50;;;11.80;99.90;;;;;;5018709;28;20462;-76
2023/03/31 10:06:53;;;;;;;11.00;6.00;;;11.90;99.90;;;;;;5036609;28;20423;-76
2023/03/31 10:09:26;;;;;;;9.13;5.83;;;11.90;99.90;;;;;;5018514;28;20924;-76
2023/03/31 10:11:57;;;;;;;8.77;6.30;;;11.90;99.90;;;;;;5018422;28;20473;-76
2023/03/31 10:14:32;;;;;;;8.20;6.30;;;12.00;99.90;;;;;;5018395;28;20534;-75
2023/03/31 10:17:05;;;;;;;10.07;6.10;;;12.00;99.90;;;;;;5018777;28;20859;-76
2023/03/31 10:19:36;;;;;;;9.60;5.73;;;11.90;99.90;;;;;;5036087;28;20427;-75
2023/03/31 10:22:14;;;;;;;8.60;5.80;;;12.00;99.90;;;;;;5018798;28;20462;-75
2023/03/31 10:24:45;;;;;;;9.73;5.90;;;12.00;99.90;;;;;;5018212;28;20633;-75
2023/03/31 10:27:21;;;;;;;10.33;6.13;;;12.00;99.90;;;;;;5018227;28;20454;-76
2023/03/31 10:29:52;;;;;;;7.17;6.30;;;12.00;99.90;;;;;;5035945;28;20419;-75
2023/03/31 10:32:27;;;;;;;6.90;5.50;;;12.00;99.90;;;;;;5018051;28;20491;-76
2023/03/31 10:34:57;;;;;;;7.27;5.40;;;12.00;99.90;;;;;;5035578;28;20474;-76
2023/03/31 10:37:28;;;;;;;8.93;6.40;;;12.00;99.90;;;;;;5036066;28;20416;-76
2023/03/31 10:39:58;;;;;;;7.40;5.57;;;12.00;99.90;;;;;;5035975;28;20455;-76
2023/03/31 10:42:28;;;;;;;9.83;6.70;;;12.00;99.90;;;;;;5017853;28;20512;-75
2023/03/31 10:45:12;;;;;;;8.57;6.70;;;12.00;99.90;;;;;;5035632;28;20471;-76
2023/03/31 10:47:55;;;;;;;8.20;6.17;;;12.10;99.90;;;;;;5017883;28;21039;-76
2023/03/31 10:50:28;;;;;;;8.93;6.40;;;12.20;99.90;;;;;;5035405;28;20440;-75
2023/03/31 10:53:05;;;;;;;7.80;5.90;;;12.20;99.90;;;;;;5017814;28;20439;-76
2023/03/31 10:55:38;;;;;;;8.33;5.87;;;12.30;99.90;;;;;;5017521;28;20454;-76
2023/03/31 10:58:15;;;;;;;8.97;6.17;;;12.30;99.90;;;;;;5017590;28;20446;-76
2023/03/31 11:00:58;;;;;;;9.13;6.10;;;12.30;99.90;;;;;;5035311;28;20489;-76
2023/03/31 11:03:50;;;;;;;7.40;6.00;;;12.40;99.90;;;;;;5035648;28;20419;-76
2023/03/31 11:06:26;;;;;;;6.90;5.20;;;12.50;99.90;;;;;;5017478;28;20971;-76
2023/03/31 11:09:08;;;;;;;11.10;5.77;;;12.60;99.90;;;;;;5035787;28;20426;-76
2023/03/31 11:11:57;;;;;;;6.50;5.20;;;12.70;99.90;;;;;;5016491;28;20562;-76
2023/03/31 11:14:35;;;;;;;7.83;6.13;;;12.70;99.90;;;;;;5035334;28;20423;-75
2023/03/31 11:17:12;;;;;;;10.03;6.87;;;12.80;99.90;;;;;;5017243;28;20477;-76
2023/03/31 11:19:51;;;;;;;7.00;5.63;;;12.90;99.90;;;;;;5017248;28;20917;-75
2023/03/31 11:22:30;;;;;;;8.40;5.80;;;13.00;99.90;;;;;;5017204;28;20477;-75
2023/03/31 11:25:23;;;;;;;7.93;6.17;;;13.10;99.90;;;;;;5018193;28;20442;-75
2023/03/31 11:28:20;;;;;;;8.40;5.70;;;13.10;99.90;;;;;;5017383;28;20438;-75
2023/03/31 11:30:54;;;;;;;5.80;4.40;;;13.20;99.90;;;;;;5035130;28;20466;-75
2023/03/31 11:33:41;;;;;;;6.30;4.80;;;13.20;99.90;;;;;;5034931;28;20869;-75
2023/03/31 11:36:21;;;;;;;7.53;4.57;;;13.20;99.90;;;;;;5034720;28;20510;-75
2023/03/31 11:39:02;;;;;;;5.73;4.17;;;13.20;99.90;;;;;;5034607;28;20442;-75
2023/03/31 11:41:36;;;;;;;4.90;4.20;;;13.20;99.90;;;;;;5016779;28;20466;-75
2023/03/31 11:44:10;;;;;;;8.10;5.47;;;13.20;99.90;;;;;;5017101;28;20943;-75
2023/03/31 11:46:41;;;;;;;5.10;3.63;;;13.20;99.90;;;;;;5034696;28;20423;-75
2023/03/31 11:49:18;;;;;;;5.43;3.70;;;13.20;99.90;;;;;;5035075;28;20438;-75
2023/03/31 11:51:51;;;;;;;5.20;3.10;;;13.10;99.90;;;;;;5016637;28;20467;-75
2023/03/31 11:54:25;;;;;;;3.83;2.70;;;13.10;99.90;;;;;;5016856;28;20445;-75
2023/03/31 11:56:56;;;;;;;4.23;2.70;;;13.10;99.90;;;;;;5034265;28;20491;-75
2023/03/31 11:59:28;;;;;;;4.30;2.73;;;13.00;99.90;;;;;;5016488;28;20436;-75
2023/03/31 12:02:05;;;;;;;3.63;2.20;;;13.00;99.90;;;;;;5016847;28;20470;-75
2023/03/31 12:04:36;;;;;;;5.57;2.80;;;13.00;99.90;;;;;;5016393;28;20939;-75
2023/03/31 12:07:18;;;;;;;4.97;3.00;;;13.00;99.90;;;;;;5016390;28;20956;-75
2023/03/31 12:09:54;;;;;;;5.03;2.73;;;13.00;99.90;;;;;;5037756;28;20423;-75
2023/03/31 12:12:29;;;;;;;5.30;2.87;;;12.90;99.90;;;;;;5035928;28;20461;-75
2023/03/31 12:15:06;;;;;;;4.30;2.67;;;13.00;99.90;;;;;;5034611;28;20477;-75
2023/03/31 12:17:36;;;;;;;3.87;2.80;;;13.00;99.90;;;;;;5016154;28;20471;-75
2023/03/31 12:20:12;;;;;;;3.90;2.60;;;13.00;99.90;;;;;;5016192;28;20665;-75
2023/03/31 12:22:43;;;;;;;4.07;2.90;;;13.10;99.90;;;;;;5015913;28;20837;-74
2023/03/31 12:25:13;;;;;;;4.13;2.30;;;13.10;99.90;;;;;;5016079;28;20527;-75
2023/03/31 12:27:49;;;;;;;4.57;2.20;;;13.10;99.90;;;;;;5033670;28;20439;-74
2023/03/31 12:30:24;;;;;;;5.17;2.40;;;13.10;99.90;;;;;;5033959;28;20897;-76
2023/03/31 12:32:58;;;;;;;3.90;2.23;;;13.10;99.90;;;;;;5016034;28;21108;-76
2023/03/31 12:35:29;;;;;;;3.73;2.17;;;13.10;99.90;;;;;;5015840;28;20482;-76
2023/03/31 12:38:16;;;;;;;4.80;2.23;;;13.10;99.90;;;;;;5033903;28;20854;-76
2023/03/31 12:41:01;;;;;;;4.50;2.47;;;13.20;99.90;;;;;;5034104;28;20466;-76
2023/03/31 12:43:56;;;;;;;3.40;2.27;;;13.30;99.90;;;;;;5033576;28;20932;-75
2023/03/31 12:46:43;;;;;;;4.27;2.20;;;13.30;99.90;;;;;;5033779;28;20423;-75
2023/03/31 12:49:22;;;;;;;5.87;2.57;;;13.50;99.90;;;;;;5033424;28;20416;-76
2023/03/31 12:52:04;;;;;;;4.10;2.57;;;13.50;99.90;;;;;;5015610;28;20549;-76
2023/03/31 12:54:55;;;;;;;3.97;2.20;;;13.60;99.90;;;;;;5015833;28;20439;-75
2023/03/31 12:57:25;;;;;;;3.90;2.37;;;13.70;99.90;;;;;;5015993;28;20474;-75
2023/03/31 13:00:24;;;;;;;3.80;1.70;;;13.70;99.90;;;;;;5015705;28;20446;-75
2023/03/31 13:03:22;;;;;;;4.00;1.67;;;13.70;99.90;;;;;;5015967;28;20933;-75
2023/03/31 13:05:51;;;;;;;5.80;2.03;;;13.70;99.90;;;;;;5017469;28;20462;-75
2023/03/31 13:08:54;;;;;;;3.47;1.90;;;13.70;99.90;;;;;;5033181;28;20431;-75